.
WxDataArchive / Data Records for 2011-11-13
2011-11-12 November 2011 2011-11-14

Data Records for Sunday, 13 November 2011

Time	Temp	Chill	HIndex	Humid	Dewpt	 Wind 	HiWind	WindDir	Rain 	Barom 
-----	----	-----	------	-----	-----	------	------	-------	-----	----- 
00:00	54.5	54.5	54.5	49	35.7	3	10	248	0.00	29.779 
00:05	54.5	54.5	54.5	49	35.7	3	9	248	0.00	29.779 
00:10	54.5	54.5	54.5	50	36.2	3	10	248	0.00	29.779 
00:15	54.4	54.4	54.4	50	36.2	3	10	270	0.00	29.778 
00:20	54.4	54.4	54.4	50	36.2	3	9	248	0.00	29.778 
00:25	54.4	54.4	54.4	50	36.2	3	7	248	0.00	29.778 
00:30	54.2	54.2	54.2	50	36.0	3	10	270	0.00	29.773 
00:35	54.1	54.1	54.1	50	35.9	2	8	248	0.00	29.773 
00:40	54.1	54.1	54.1	51	36.4	3	7	270	0.00	29.773 
00:45	54.1	54.1	54.1	50	35.9	3	11	270	0.00	29.767 
00:50	53.9	53.9	53.9	51	36.2	2	7	270	0.00	29.767 
00:55	53.9	53.9	53.9	50	35.7	3	7	248	0.00	29.767 
01:00	53.8	53.8	53.8	51	36.1	2	7	270	0.00	29.765 
01:05	53.8	53.8	53.8	51	36.1	3	7	270	0.00	29.765 
01:10	53.8	53.8	53.8	51	36.1	3	7	248	0.00	29.765 
01:15	53.8	53.8	53.8	51	36.1	2	9	248	0.00	29.756 
01:20	53.8	53.8	53.8	51	36.1	2	10	248	0.00	29.756 
01:25	53.8	53.8	53.8	51	36.1	3	7	248	0.00	29.756 
01:30	53.8	53.8	53.8	50	35.6	3	10	225	0.00	29.753 
01:35	53.8	53.8	53.8	50	35.6	2	10	248	0.00	29.753 
01:40	53.8	53.8	53.8	50	35.6	2	7	248	0.00	29.753 
01:45	53.8	53.8	53.8	50	35.6	3	9	248	0.00	29.749 
01:50	53.8	53.8	53.8	50	35.6	2	7	248	0.00	29.749 
01:55	53.8	53.8	53.8	50	35.6	2	10	248	0.00	29.749 
02:00	53.6	53.6	53.6	50	35.4	3	8	270	0.00	29.746 
02:05	53.5	53.5	53.5	50	35.3	2	9	270	0.00	29.746 
02:10	53.5	53.5	53.5	50	35.3	1	4	68	0.00	29.746 
02:15	53.3	53.3	53.3	50	35.1	2	6	248	0.00	29.744 
02:20	53.5	53.5	53.5	50	35.3	2	10	248	0.00	29.744 
02:25	53.5	53.5	53.5	51	35.8	2	7	248	0.00	29.744 
02:30	53.5	53.5	53.5	50	35.3	2	7	270	0.00	29.736 
02:35	53.5	53.5	53.5	50	35.3	2	6	248	0.00	29.736 
02:40	53.5	53.5	53.5	51	35.8	2	9	270	0.00	29.736 
02:45	53.3	53.3	53.3	51	35.6	2	9	248	0.00	29.733 
02:50	53.3	53.3	53.3	51	35.6	2	6	248	0.00	29.733 
02:55	53.5	53.5	53.5	51	35.8	1	6	248	0.00	29.733 
03:00	53.5	53.5	53.5	51	35.8	3	9	248	0.00	29.726 
03:05	53.6	53.6	53.6	51	35.9	2	13	248	0.00	29.726 
03:10	53.6	53.6	53.6	51	35.9	2	9	248	0.00	29.726 
03:15	53.8	53.8	53.8	52	36.6	3	10	270	0.00	29.723 
03:20	53.8	53.8	53.8	51	36.1	2	9	248	0.00	29.723 
03:25	53.6	53.6	53.6	52	36.4	2	5	248	0.00	29.723 
03:30	53.5	53.5	53.5	52	36.3	3	9	248	0.00	29.715 
03:35	53.5	53.5	53.5	53	36.8	2	9	248	0.00	29.715 
03:40	53.2	53.2	53.2	53	36.5	2	6	248	0.00	29.715 
03:45	53.1	53.1	53.1	54	36.9	1	5	248	0.00	29.713 
03:50	53.1	53.1	53.1	54	36.9	1	4	248	0.00	29.713 
03:55	53.1	53.1	53.1	54	36.9	2	5	270	0.00	29.713 
04:00	52.9	52.9	52.9	55	37.2	2	9	270	0.00	29.697 
04:05	53.2	53.2	53.2	55	37.5	2	11	248	0.00	29.697 
04:10	53.2	53.2	53.2	55	37.5	2	7	248	0.00	29.697 
04:15	53.3	53.3	53.3	55	37.5	2	7	225	0.00	29.698 
04:20	53.5	53.5	53.5	55	37.7	2	9	270	0.00	29.698 
04:25	53.5	53.5	53.5	55	37.7	2	6	248	0.00	29.698 
04:30	53.6	53.6	53.6	55	37.8	2	7	90	0.00	29.695 
04:35	53.8	53.8	53.8	55	38.0	3	11	292	0.00	29.695 
04:40	53.9	53.9	53.9	55	38.1	1	6	270	0.00	29.695 
04:45	53.9	53.9	53.9	55	38.1	3	10	248	0.00	29.691 
04:50	53.9	53.9	53.9	55	38.1	2	7	248	0.00	29.691 
04:55	53.9	53.9	53.9	55	38.1	2	6	338	0.00	29.691 
05:00	53.9	53.9	53.9	56	38.6	2	6	270	0.00	29.692 
05:05	53.8	53.8	53.8	56	38.5	1	5	248	0.00	29.692 
05:10	53.8	53.8	53.8	56	38.5	3	7	248	0.00	29.692 
05:15	53.8	53.8	53.8	56	38.5	2	9	270	0.00	29.697 
05:20	53.8	53.8	53.8	55	38.0	3	7	270	0.00	29.697 
05:25	53.9	53.9	53.9	55	38.1	3	12	248	0.00	29.697 
05:30	53.9	53.9	53.9	55	38.1	2	6	248	0.00	29.690 
05:35	53.8	53.8	53.8	55	38.0	3	7	248	0.00	29.690 
05:40	53.8	53.8	53.8	55	38.0	2	6	292	0.00	29.690 
05:45	53.6	53.6	53.6	56	38.3	2	9	248	0.00	29.685 
05:50	53.5	53.5	53.5	56	38.2	2	7	248	0.00	29.685 
05:55	53.3	53.3	53.3	56	38.0	2	7	270	0.00	29.685 
06:00	53.3	53.3	53.3	57	38.5	2	5	270	0.00	29.682 
06:05	53.2	53.2	53.2	57	38.4	2	9	270	0.00	29.682 
06:10	53.1	53.1	53.1	57	38.3	2	11	248	0.00	29.682 
06:15	52.9	52.9	52.9	57	38.1	2	6	248	0.00	29.681 
06:20	52.6	52.6	52.6	58	38.2	1	4	0	0.00	29.681 
06:25	52.3	52.3	52.3	58	38.0	2	6	45	0.00	29.681 
06:30	52.2	52.2	52.2	58	37.9	1	3	338	0.00	29.680 
06:35	52.2	52.2	52.2	58	37.9	2	6	270	0.00	29.680 
06:40	52.2	52.2	52.2	58	37.9	2	7	90	0.00	29.680 
06:45	52.2	52.2	52.2	58	37.9	2	6	248	0.00	29.679 
06:50	52.3	52.3	52.3	58	38.0	1	4	315	0.00	29.679 
06:55	52.3	52.3	52.3	58	38.0	2	5	270	0.00	29.679 
07:00	52.3	52.3	52.3	58	38.0	2	6	248	0.00	29.670 
07:05	52.3	52.3	52.3	58	38.0	2	11	90	0.00	29.670 
07:10	52.3	52.3	52.3	59	38.4	1	10	270	0.00	29.670 
07:15	52.5	52.5	52.5	59	38.6	2	7	248	0.00	29.662 
07:20	52.6	52.6	52.6	59	38.7	2	9	248	0.00	29.662 
07:25	52.8	52.8	52.8	59	38.9	2	5	270	0.00	29.662 
07:30	52.8	52.8	52.8	59	38.9	2	8	270	0.00	29.660 
07:35	52.9	52.9	52.9	59	39.0	2	7	270	0.00	29.660 
07:40	53.1	53.1	53.1	59	39.2	2	6	270	0.00	29.660 
07:45	53.2	53.2	53.2	59	39.2	3	7	270	0.00	29.655 
07:50	53.3	53.3	53.3	59	39.3	2	6	270	0.00	29.655 
07:55	53.3	53.3	53.3	59	39.3	3	9	248	0.00	29.655 
08:00	53.5	53.5	53.5	59	39.5	1	6	315	0.00	29.655 
08:05	53.5	53.5	53.5	59	39.5	2	10	90	0.00	29.655 
08:10	53.6	53.6	53.6	59	39.6	2	7	270	0.00	29.655 
08:15	53.8	53.8	53.8	59	39.8	2	6	68	0.00	29.655 
08:20	53.8	53.8	53.8	59	39.8	3	9	90	0.00	29.655 
08:25	53.8	53.8	53.8	60	40.2	2	9	90	0.00	29.655 
08:30	53.8	53.8	53.8	60	40.2	2	9	248	0.00	29.661 
08:35	53.9	53.9	53.9	60	40.3	2	7	90	0.00	29.661 
08:40	53.9	53.9	53.9	61	40.8	1	6	270	0.00	29.661 
08:45	53.9	53.9	53.9	61	40.8	1	5	338	0.00	29.667 
08:50	54.1	54.1	54.1	62	41.4	2	12	112	0.00	29.667 
08:55	54.2	54.2	54.2	62	41.5	2	6	315	0.00	29.667 
09:00	54.5	54.5	54.5	62	41.7	3	17	90	0.00	29.667 
09:05	54.8	54.8	54.8	62	42.0	2	17	248	0.00	29.667 
09:10	55.0	55.0	55.0	61	41.8	2	10	248	0.00	29.667 
09:15	55.1	55.1	55.1	62	42.3	3	9	270	0.00	29.661 
09:20	55.3	55.3	55.3	61	42.1	3	9	270	0.00	29.661 
09:25	55.6	55.6	55.6	61	42.4	3	9	248	0.00	29.661 
09:30	55.7	55.7	55.7	61	42.5	3	9	248	0.00	29.663 
09:35	55.9	55.9	55.9	61	42.6	2	5	248	0.00	29.663 
09:40	56.0	56.0	56.0	61	42.7	2	7	248	0.00	29.663 
09:45	56.2	56.2	56.2	61	42.9	2	9	248	0.00	29.650 
09:50	56.3	56.3	56.3	62	43.4	2	9	292	0.00	29.650 
09:55	56.5	56.5	56.5	61	43.2	2	7	248	0.00	29.650 
10:00	56.6	56.6	56.6	61	43.3	3	8	248	0.00	29.638 
10:05	56.7	56.7	56.7	61	43.4	3	12	248	0.00	29.638 
10:10	56.9	56.9	56.9	62	44.0	2	5	248	0.00	29.638 
10:15	57.0	57.0	57.0	62	44.1	3	10	248	0.00	29.635 
10:20	57.3	57.3	57.3	61	44.0	3	12	270	0.00	29.635 
10:25	57.5	57.5	57.5	61	44.2	3	9	248	0.00	29.635 
10:30	57.8	57.8	57.8	61	44.4	4	9	248	0.00	29.630 
10:35	58.3	58.3	58.3	62	45.3	3	9	270	0.00	29.630 
10:40	58.6	58.6	58.6	61	45.2	4	10	248	0.00	29.630 
10:45	59.0	59.0	59.0	61	45.6	2	6	270	0.00	29.620 
10:50	59.5	59.5	59.5	60	45.6	3	9	248	0.00	29.620 
10:55	59.9	59.9	59.9	61	46.4	3	10	248	0.00	29.620 
11:00	60.1	60.1	60.1	60	46.2	4	12	248	0.00	29.614 
11:05	60.1	60.1	60.1	60	46.2	4	10	270	0.00	29.614 
11:10	60.1	60.1	60.1	60	46.2	5	14	270	0.00	29.614 
11:15	60.1	60.1	60.1	60	46.2	4	10	248	0.00	29.606 
11:20	60.1	60.1	60.1	61	46.6	3	9	248	0.00	29.606 
11:25	60.2	60.2	60.2	61	46.7	3	7	248	0.00	29.606 
11:30	60.4	60.4	60.4	61	46.9	3	10	248	0.00	29.596 
11:35	60.5	60.5	60.5	61	47.0	5	13	270	0.00	29.596 
11:40	60.7	60.7	60.7	61	47.2	5	12	248	0.00	29.596 
11:45	60.9	60.9	60.9	61	47.4	4	14	248	0.00	29.591 
11:50	61.0	61.0	61.0	61	47.5	4	10	248	0.00	29.591 
11:55	60.9	60.9	60.9	61	47.4	4	9	248	0.00	29.591 
12:00	60.9	60.9	60.9	61	47.4	5	12	248	0.00	29.590 
12:05	60.9	60.9	60.9	61	47.4	4	11	248	0.00	29.590 
12:10	60.9	60.9	60.9	62	47.8	5	12	248	0.00	29.590 
12:15	60.9	60.9	60.9	62	47.8	5	13	270	0.00	29.586 
12:20	60.7	60.7	60.7	62	47.6	3	9	248	0.00	29.586 
12:25	60.7	60.7	60.7	62	47.6	4	11	270	0.00	29.586 
12:30	60.7	60.7	60.7	63	48.0	4	10	248	0.00	29.580 
12:35	60.9	60.9	60.9	63	48.2	3	12	248	0.00	29.580 
12:40	60.9	60.9	60.9	63	48.2	2	6	248	0.00	29.580 
12:45	60.9	60.9	60.9	63	48.2	4	10	248	0.00	29.570 
12:50	60.9	60.9	60.9	64	48.6	3	14	248	0.00	29.570 
12:55	61.0	61.0	61.0	64	48.7	3	11	248	0.00	29.570 
13:00	61.2	61.2	61.2	64	48.9	3	8	248	0.00	29.552 
13:05	61.3	61.3	61.3	63	48.6	3	11	248	0.00	29.552 
13:10	61.5	61.5	61.5	63	48.8	2	10	248	0.00	29.552 
13:15	61.6	61.6	61.6	63	48.9	4	16	248	0.00	29.543 
13:20	61.8	61.8	61.8	63	49.1	4	9	248	0.00	29.543 
13:25	61.8	61.8	61.8	62	48.6	4	12	248	0.00	29.543 
13:30	61.8	61.8	61.8	63	49.1	4	10	248	0.00	29.535 
13:35	61.8	61.8	61.8	63	49.1	3	10	270	0.00	29.535 
13:40	61.8	61.8	61.8	63	49.1	4	11	248	0.00	29.535 
13:45	61.8	61.8	61.8	63	49.1	3	10	270	0.00	29.528 
13:50	61.8	61.8	61.8	63	49.1	3	9	248	0.00	29.528 
13:55	61.8	61.8	61.8	63	49.1	3	7	248	0.00	29.528 
14:00	61.8	61.8	61.8	64	49.5	3	10	248	0.00	29.523 
14:05	61.8	61.8	61.8	64	49.5	2	7	248	0.00	29.523 
14:10	61.8	61.8	61.8	64	49.5	3	11	248	0.00	29.523 
14:15	61.8	61.8	61.8	64	49.5	3	7	248	0.00	29.520 
14:20	61.8	61.8	61.8	64	49.5	3	10	248	0.00	29.520 
14:25	61.8	61.8	61.8	65	49.9	2	6	248	0.00	29.520 
14:30	61.8	61.8	61.8	65	49.9	2	12	248	0.00	29.517 
14:35	62.0	62.0	62.0	65	50.1	2	5	248	0.00	29.517 
14:40	62.1	62.1	62.1	64	49.8	2	5	248	0.00	29.517 
14:45	62.4	62.4	62.4	64	50.1	2	7	248	0.00	29.508 
14:50	62.7	62.7	62.7	64	50.3	1	6	248	0.00	29.508 
14:55	63.1	63.1	63.1	63	50.3	3	11	248	0.00	29.508 
15:00	63.4	63.4	63.4	62	50.1	4	12	270	0.00	29.511 
15:05	63.7	63.7	63.7	62	50.4	4	13	248	0.00	29.511 
15:10	63.9	63.9	63.9	61	50.2	4	13	248	0.00	29.511 
15:15	63.9	63.9	63.9	61	50.2	2	10	248	0.00	29.512 
15:20	63.9	63.9	63.9	62	50.6	4	10	248	0.00	29.512 
15:25	63.9	63.9	63.9	62	50.6	3	9	248	0.00	29.512 
15:30	63.9	63.9	63.9	62	50.6	4	10	248	0.00	29.517 
15:35	63.7	63.7	63.7	62	50.4	2	6	248	0.00	29.517 
15:40	63.7	63.7	63.7	62	50.4	3	9	248	0.00	29.517 
15:45	63.7	63.7	63.7	62	50.4	3	10	248	0.00	29.519 
15:50	63.7	63.7	63.7	62	50.4	2	7	248	0.00	29.519 
15:55	63.7	63.7	63.7	63	50.9	2	4	248	0.00	29.519 
16:00	63.5	63.5	63.5	63	50.7	2	7	248	0.00	29.523 
16:05	63.5	63.5	63.5	63	50.7	2	5	248	0.00	29.523 
16:10	63.4	63.4	63.4	63	50.6	2	7	248	0.00	29.523 
16:15	63.4	63.4	63.4	64	51.0	2	5	248	0.00	29.520 
16:20	63.5	63.5	63.5	64	51.1	2	7	248	0.00	29.520 
16:25	63.4	63.4	63.4	64	51.0	1	6	248	0.00	29.520 
16:30	63.4	63.4	63.4	64	51.0	1	6	270	0.00	29.519 
16:35	63.2	63.2	63.2	65	51.2	2	5	225	0.00	29.519 
16:40	63.4	63.4	63.4	65	51.4	2	10	248	0.00	29.519 
16:45	63.5	63.5	63.5	65	51.5	2	7	248	0.00	29.518 
16:50	63.7	63.7	63.7	65	51.7	2	6	248	0.00	29.518 
16:55	63.5	63.5	63.5	65	51.5	2	6	248	0.00	29.518 
17:00	63.5	63.5	63.5	65	51.5	2	7	225	0.00	29.518 
17:05	63.5	63.5	63.5	65	51.5	2	7	270	0.00	29.518 
17:10	63.5	63.5	63.5	65	51.5	2	10	248	0.00	29.518 
17:15	63.5	63.5	63.5	65	51.5	2	7	248	0.00	29.528 
17:20	63.4	63.4	63.4	65	51.4	2	8	248	0.00	29.528 
17:25	63.2	63.2	63.2	65	51.2	2	11	248	0.00	29.528 
17:30	62.9	62.9	62.9	66	51.4	1	6	248	0.00	29.517 
17:35	62.6	62.6	62.6	67	51.5	1	5	248	0.00	29.517 
17:40	62.4	62.4	62.4	67	51.3	2	5	248	0.00	29.517 
17:45	62.3	62.3	62.3	68	51.6	2	4	248	0.00	29.531 
17:50	62.3	62.3	62.3	68	51.6	2	5	248	0.00	29.531 
17:55	62.1	62.1	62.1	68	51.4	1	5	270	0.00	29.531 
18:00	62.3	62.3	62.3	68	51.6	2	4	248	0.00	29.550 
18:05	62.3	62.3	62.3	68	51.6	2	6	248	0.00	29.550 
18:10	62.3	62.3	62.3	69	52.0	2	7	248	0.00	29.550 
18:15	62.3	62.3	62.3	69	52.0	2	6	248	0.00	29.545 
18:20	62.3	62.3	62.3	69	52.0	2	6	248	0.00	29.545 
18:25	62.4	62.4	62.4	69	52.1	2	6	248	0.00	29.545 
18:30	62.3	62.3	62.3	69	52.0	1	5	248	0.00	29.551 
18:35	62.4	62.4	62.4	69	52.1	2	7	248	0.00	29.551 
18:40	62.4	62.4	62.4	69	52.1	2	6	225	0.00	29.551 
18:45	62.3	62.3	62.3	69	52.0	2	6	248	0.00	29.554 
18:50	62.3	62.3	62.3	69	52.0	2	6	248	0.00	29.554 
18:55	62.3	62.3	62.3	69	52.0	2	6	248	0.00	29.554 
19:00	62.3	62.3	62.3	69	52.0	2	6	248	0.00	29.552 
19:05	62.3	62.3	62.3	69	52.0	3	11	248	0.00	29.552 
19:10	62.3	62.3	62.3	69	52.0	2	7	225	0.00	29.552 
19:15	62.3	62.3	62.3	69	52.0	2	5	248	0.00	29.553 
19:20	62.1	62.1	62.1	69	51.8	2	7	248	0.00	29.553 
19:25	62.1	62.1	62.1	70	52.2	2	5	248	0.00	29.553 
19:30	62.1	62.1	62.1	70	52.2	2	7	248	0.00	29.553 
19:35	62.0	62.0	62.0	70	52.1	2	6	248	0.00	29.553 
19:40	62.0	62.0	62.0	70	52.1	2	6	248	0.00	29.553 
19:45	62.0	62.0	62.0	71	52.5	2	6	248	0.00	29.559 
19:50	61.8	61.8	61.8	71	52.3	2	7	248	0.00	29.559 
19:55	61.8	61.8	61.8	71	52.3	2	7	248	0.00	29.559 
20:00	61.8	61.8	61.8	72	52.7	2	9	248	0.00	29.556 
20:05	61.8	61.8	61.8	72	52.7	2	6	248	0.00	29.556 
20:10	62.0	62.0	62.0	72	52.9	3	9	248	0.00	29.556 
20:15	62.0	62.0	62.0	72	52.9	2	6	248	0.00	29.556 
20:20	61.8	61.8	61.8	72	52.7	1	4	248	0.00	29.556 
20:25	61.8	61.8	61.8	73	53.0	2	5	248	0.00	29.556 
20:30	61.8	61.8	61.8	73	53.0	2	7	248	0.00	29.552 
20:35	62.0	62.0	62.0	72	52.9	2	6	248	0.00	29.552 
20:40	62.0	62.0	62.0	72	52.9	3	7	248	0.00	29.552 
20:45	62.0	62.0	62.0	72	52.9	3	7	248	0.00	29.555 
20:50	62.0	62.0	62.0	72	52.9	2	6	248	0.00	29.555 
20:55	62.0	62.0	62.0	73	53.2	2	7	248	0.00	29.555 
21:00	61.8	61.8	61.8	73	53.0	2	6	248	0.00	29.562 
21:05	61.6	61.6	61.6	73	52.9	1	5	248	0.00	29.562 
21:10	61.6	61.6	61.6	73	52.9	2	4	248	0.00	29.562 
21:15	61.5	61.5	61.5	73	52.8	1	4	248	0.00	29.563 
21:20	61.3	61.3	61.3	74	52.9	1	6	248	0.00	29.563 
21:25	61.3	61.3	61.3	74	52.9	1	6	270	0.00	29.563 
21:30	61.3	61.3	61.3	74	52.9	2	7	248	0.00	29.564 
21:35	61.3	61.3	61.3	74	52.9	1	4	248	0.00	29.564 
21:40	61.5	61.5	61.5	74	53.1	2	5	248	0.00	29.564 
21:45	61.5	61.5	61.5	74	53.1	1	5	248	0.00	29.566 
21:50	61.5	61.5	61.5	74	53.1	1	4	248	0.00	29.566 
21:55	61.5	61.5	61.5	74	53.1	2	7	248	0.00	29.566 
22:00	61.6	61.6	61.6	75	53.6	1	5	248	0.00	29.574 
22:05	62.1	62.1	62.1	74	53.7	3	7	248	0.00	29.574 
22:10	62.4	62.4	62.4	74	54.0	3	6	248	0.00	29.574 
22:15	62.7	62.7	62.7	73	53.9	3	7	248	0.00	29.574 
22:20	63.1	63.1	63.1	73	54.3	3	8	270	0.00	29.574 
22:25	63.2	63.2	63.2	73	54.4	3	11	248	0.00	29.574 
22:30	63.2	63.2	63.2	73	54.4	3	8	248	0.00	29.576 
22:35	63.2	63.2	63.2	73	54.4	3	14	248	0.00	29.576 
22:40	63.1	63.1	63.1	74	54.7	4	10	248	0.00	29.576 
22:45	63.1	63.1	63.1	74	54.7	3	9	248	0.00	29.580 
22:50	62.9	62.9	62.9	74	54.5	3	7	248	0.00	29.580 
22:55	62.9	62.9	62.9	74	54.5	3	7	270	0.00	29.580 
23:00	62.9	62.9	62.9	74	54.5	4	11	248	0.00	29.583 
23:05	62.9	62.9	62.9	75	54.8	3	9	248	0.00	29.583 
23:10	62.9	62.9	62.9	75	54.8	4	12	248	0.00	29.583 
23:15	62.9	62.9	62.9	75	54.8	4	9	248	0.00	29.590 
23:20	62.9	62.9	62.9	75	54.8	4	9	248	0.00	29.590 
23:25	62.9	62.9	62.9	76	55.2	3	12	248	0.00	29.590 
23:30	62.9	62.9	62.9	76	55.2	4	9	248	0.00	29.602 
23:35	62.7	62.7	62.7	76	55.0	2	5	248	0.00	29.602 
23:40	62.7	62.7	62.7	77	55.4	3	10	248	0.00	29.602 
23:45	62.7	62.7	62.7	77	55.4	2	6	248	0.00	29.613 
23:50	62.7	62.7	62.7	77	55.4	2	6	248	0.00	29.613 
23:55	62.7	62.7	62.7	77	55.4	2	5	248	0.00	29.613 

CoCoRaHS
IN-AL-39
A2 Web Hosting
Creative Commons License
GoDaddy
search engine by freefind advanced

loaded 2018-11-16 01:01:54 • last modified 2010-11-18 10:43:29
Privacy PolicyDisclaimer
• wx.awcolley.com is powered by PmWiki v.2002016 •
• all content (unless otherwise noted) © 2018 A W Colley